Historique des stations

Station météo de Barrage d Eguzon

Altitude de la station : 200 m







Données météorologiques pour le 23/05/2022
Date
Heure
Températures Humidité Point de rosée Vitesse
du vent
Direction Rafales Windchill Pression Pluviométrie
Cumul
Date
Heure
Températures Humidité Point de rosée Vitesse
du vent
Direction Rafales Windchill Pression Pluviométrie
Cumul
23/05/2022 09:4018.7 °C81 %15.4 °C12 km/hSSE24 km/h18.71001 hPa0.0 mm
23/05/2022 09:3018.8 °C82 %15.6 °C11 km/hSSE29 km/h18.81001 hPa0.0 mm
23/05/2022 09:1018.8 °C83 %15.9 °C10 km/h21 km/h18.81001 hPa0.0 mm
23/05/2022 09:0018.6 °C82 %15.5 °C9 km/h32 km/h18.51001 hPa0.0 mm
23/05/2022 08:4018.8 °C82 %15.7 °C7 km/hSSE19 km/h18.81001 hPa0.0 mm
23/05/2022 08:3018.8 °C82 %15.6 °C7 km/hSSE16 km/h18.81001 hPa0.0 mm
23/05/2022 08:1018.7 °C81 %15.3 °C8 km/hSSE13 km/h18.71001 hPa0.0 mm
23/05/2022 08:0018.6 °C82 %15.5 °C10 km/h18 km/h18.61001 hPa0.0 mm
23/05/2022 07:4018.5 °C83 %15.6 °C11 km/hSSE19 km/h18.51001 hPa0.0 mm
23/05/2022 07:3018.5 °C82 %15.4 °C11 km/hSSE19 km/h18.51002 hPa0.0 mm
23/05/2022 07:1018.4 °C82 %15.3 °C10 km/hSSE24 km/h18.41002 hPa0.0 mm
23/05/2022 07:0018.2 °C83 %15.3 °C8 km/hSSE23 km/h18.21002 hPa0.0 mm
23/05/2022 06:4018.2 °C83 %15.3 °C7 km/hSSE19 km/h18.21002 hPa0.0 mm
23/05/2022 06:3018.3 °C85 %15.8 °C6 km/hS13 km/h18.31002 hPa0.0 mm
23/05/2022 06:1018.6 °C84 %15.8 °C5 km/hSSE16 km/h18.61003 hPa0.0 mm
23/05/2022 06:0018.7 °C87 %16.5 °C4 km/hSSE15 km/h18.71003 hPa0.0 mm
23/05/2022 05:4018.7 °C86 %16.3 °C2 km/hSSE15 km/h18.71003 hPa0.0 mm
23/05/2022 05:3018.7 °C87 %16.5 °C2 km/hSSE16 km/h18.71002 hPa0.0 mm
23/05/2022 05:1018.8 °C88 %16.7 °C2 km/hSSE8 km/h18.81002 hPa0.0 mm
23/05/2022 05:0018.8 °C90 %17.2 °C3 km/hESE5 km/h18.81003 hPa0.0 mm
23/05/2022 04:4019.3 °C89 %17.4 °C3 km/hS6 km/h19.31003 hPa0.0 mm
23/05/2022 04:3019.4 °C89 %17.6 °C3 km/hSSE11 km/h19.41002 hPa0.0 mm
23/05/2022 04:1019.4 °C91 %17.9 °C2 km/hSSE11 km/h19.41002 hPa0.0 mm
23/05/2022 03:4019.5 °C90 %17.8 °C3 km/hESE3 km/h19.51002 hPa0.0 mm
23/05/2022 03:3020.0 °C88 %17.9 °C4 km/hSSE10 km/h20.01002 hPa0.0 mm
23/05/2022 03:1020.1 °C89 %18.2 °C3 km/hSSE11 km/h20.11002 hPa0.0 mm
23/05/2022 03:0020.1 °C89 %18.2 °C3 km/hSSE15 km/h20.11003 hPa0.0 mm
23/05/2022 02:4019.3 °C91 %17.8 °C1 km/hSSE8 km/h19.31003 hPa0.0 mm
23/05/2022 02:3018.1 °C96 %17.5 °C-SE11 km/h18.11003 hPa0.0 mm
23/05/2022 02:1017.9 °C95 %17.1 °C-SSE3 km/h17.91002 hPa0.0 mm
23/05/2022 01:4018.1 °C93 %17.0 °C-SSE2 km/h18.11002 hPa4.6 mm
23/05/2022 01:3018.2 °C93 %17.1 °C-ESE3 km/h18.21002 hPa4.6 mm
23/05/2022 00:4018.4 °C92 %17.1 °C-SE5 km/h18.41002 hPa4.6 mm
23/05/2022 00:3018.5 °C90 %16.8 °C2 km/hESE3 km/h18.51002 hPa4.6 mm
23/05/2022 00:1018.9 °C89 %17.1 °C3 km/hSE6 km/h18.91003 hPa4.6 mm
23/05/2022 00:0019.4 °C86 %17.0 °C3 km/hENE6 km/h19.41003 hPa4.6 mm


Minima :

Température : 17.9 °C
Humidité : 81 %
Point de rosée : 15.3 °C
Vent moyen : 1 km/h
Windchill : 17.9
Pression atm. : 1001 hPa
Maxima :

Température : 20.1 °C
Humidité : 96 %
Point de rosée : 18.2 °C
Vent moyen : 12 km/h
Windchill : 20.1
Pression atm. : 1003 hPa
Rafales max : 32 km/h
Cumul de pluie sur 24H : 4.6 mm

Eguzon est une commune du département Indre (36).
La station météorologique du réseau de l'association la plus proche de Barrage d Eguzon est celle de Lys-Saint-Georges



Icône Facebook Association Météo Centre Icône Twitter Association Météo Centre Icône Chaîne Youtube Association Météo Centre Icône contact Association Météo Centre Icône Insta Association Météo Centre